Terminal Aerodrome Forecast
Issued by NWS

Home | Current Version | Previous Version | Graphics & Text | Print | Product List | Glossary On
Versions: 1 2 3 4 5 6 7 8 9 10 11 12 13
000
FTUS43 KFGF 020500
TAFBJI
TAF
KBJI 020520Z 0206/0306 VRB06KT P6SM SCT250
     FM021500 19009KT P6SM SCT250
     FM021800 19014G20KT P6SM SCT250
     FM030000 18010KT P6SM VCSH BKN120
      TEMPO 0301/0305 -SHRA BKN080=

USA.gov is the U.S. government's official web portal to all federal, state and local government web resources and services.